createdAt,value
2022-08-11T00:02:07.071Z,50.71
2022-08-11T00:04:45.556Z,50.81
2022-08-11T00:07:17.067Z,50.86
2022-08-11T00:09:49.463Z,50.97
2022-08-11T00:12:19.155Z,51.29
2022-08-11T00:15:01.138Z,51.23
2022-08-11T00:17:34.624Z,51.52
2022-08-11T00:20:18.034Z,51.52
2022-08-11T00:22:52.524Z,51.69
2022-08-11T00:25:23.285Z,51.85
2022-08-11T00:27:53.349Z,52.04
2022-08-11T00:30:24.166Z,52.27
2022-08-11T00:32:56.832Z,52.35
2022-08-11T00:35:54.183Z,52.39
2022-08-11T00:38:27.458Z,52.55
2022-08-11T00:41:21.357Z,52.79
2022-08-11T00:44:36.864Z,52.78
2022-08-11T00:47:23.101Z,52.89
2022-08-11T00:50:41.586Z,52.92
2022-08-11T00:53:36.526Z,53.14
2022-08-11T00:56:37.947Z,53.19
2022-08-11T00:59:57.971Z,53.33
2022-08-11T01:02:58.707Z,53.31
2022-08-11T01:06:08.091Z,53.42
2022-08-11T01:09:31.355Z,53.39
2022-08-11T01:12:56.545Z,53.44
2022-08-11T01:16:08.061Z,53.41
2022-08-11T01:20:47.803Z,53.45
2022-08-11T01:23:07.413Z,53.48
2022-08-11T01:25:57.917Z,53.64
2022-08-11T01:48:22.070Z,54.12
2022-08-11T01:51:27.931Z,54.15
2022-08-11T01:54:39.073Z,54.27
2022-08-11T01:57:31.109Z,54.39
2022-08-11T02:00:19.318Z,54.47
2022-08-11T02:03:13.943Z,54.53
2022-08-11T02:06:42.515Z,54.71
2022-08-11T02:10:14.746Z,54.80
2022-08-11T02:13:10.241Z,54.90
2022-08-11T02:15:57.908Z,55.06
2022-08-11T02:19:00.226Z,55.05
2022-08-11T02:22:10.978Z,55.05
2022-08-11T02:24:59.273Z,55.21
2022-08-11T02:27:42.387Z,55.24
2022-08-11T02:30:29.264Z,55.35
2022-08-11T02:33:30.352Z,55.47
2022-08-11T02:36:24.095Z,55.58
2022-08-11T02:39:13.507Z,55.61
2022-08-11T02:42:32.587Z,55.77
2022-08-11T02:46:18.086Z,55.80
2022-08-11T02:50:09.348Z,55.93
2022-08-11T02:53:04.010Z,56.00
2022-08-11T02:55:57.326Z,56.19
2022-08-11T02:59:10.275Z,56.06
2022-08-11T03:02:05.558Z,56.41
2022-08-11T03:05:01.980Z,56.43
2022-08-11T03:08:15.607Z,56.56
2022-08-11T03:11:40.885Z,56.51
2022-08-11T03:14:54.839Z,56.54
2022-08-11T03:25:25.264Z,56.63
2022-08-11T03:28:48.649Z,56.82
2022-08-11T03:31:40.947Z,57.09
2022-08-11T03:34:34.119Z,56.82
2022-08-11T03:37:41.631Z,57.02
2022-08-11T03:40:58.607Z,56.57
2022-08-11T03:44:20.429Z,56.61
2022-08-11T03:47:52.638Z,56.56
2022-08-11T03:51:13.515Z,56.84
2022-08-11T03:54:32.528Z,56.86
2022-08-11T03:58:02.210Z,56.90
2022-08-11T04:01:43.588Z,57.02
2022-08-11T04:04:49.892Z,57.32
2022-08-11T04:08:24.227Z,57.47
2022-08-11T04:28:50.323Z,58.13
2022-08-11T04:31:51.089Z,58.46
2022-08-11T04:34:44.741Z,58.42
2022-08-11T04:37:38.381Z,58.52
2022-08-11T04:40:54.549Z,58.40
2022-08-11T04:44:06.663Z,58.33
2022-08-11T04:48:01.898Z,58.37
2022-08-11T04:51:17.080Z,58.75
2022-08-11T04:54:17.857Z,58.72
2022-08-11T04:57:09.841Z,58.72
2022-08-11T05:00:19.813Z,58.76
2022-08-11T05:03:30.446Z,58.68
2022-08-11T05:06:32.165Z,58.70
2022-08-11T05:09:25.186Z,58.68
2022-08-11T05:12:14.176Z,58.75
2022-08-11T05:15:12.065Z,58.60
2022-08-11T05:18:33.840Z,58.52
2022-08-11T05:21:45.090Z,58.60
2022-08-11T05:25:02.697Z,58.51
2022-08-11T05:28:48.344Z,58.58
2022-08-11T05:31:51.234Z,58.52
2022-08-11T05:34:56.901Z,58.63
2022-08-11T05:38:06.319Z,58.60
2022-08-11T05:41:13.092Z,58.49
2022-08-11T05:44:21.174Z,58.46
2022-08-11T05:48:12.576Z,58.50
2022-08-11T05:51:29.882Z,58.62
2022-08-11T05:54:36.387Z,58.55
2022-08-11T05:57:44.003Z,58.45
2022-08-11T06:00:12.844Z,58.37
2022-08-11T06:02:51.682Z,58.34
2022-08-11T06:05:43.622Z,58.28
2022-08-11T06:08:16.784Z,58.33
2022-08-11T06:10:49.016Z,58.19
2022-08-11T06:13:21.155Z,58.27
2022-08-11T06:15:53.740Z,58.09
2022-08-11T06:18:33.149Z,58.09
2022-08-11T06:21:09.938Z,58.00
2022-08-11T06:23:43.099Z,57.93
2022-08-11T06:26:17.066Z,57.88
2022-08-11T06:28:50.389Z,57.79
2022-08-11T06:31:26.499Z,57.67
2022-08-11T06:34:27.881Z,57.61
2022-08-11T06:38:02.289Z,57.61
2022-08-11T06:41:18.817Z,57.54
2022-08-11T06:44:06.408Z,57.49
2022-08-11T06:46:46.514Z,57.45
2022-08-11T06:49:44.422Z,57.28
2022-08-11T06:52:35.564Z,56.95
2022-08-11T06:55:55.979Z,56.61
2022-08-11T06:58:24.315Z,56.91
2022-08-11T07:00:59.457Z,56.65
2022-08-11T07:03:35.564Z,56.35
2022-08-11T07:06:41.514Z,56.07
2022-08-11T07:09:59.430Z,55.87
2022-08-11T07:12:58.956Z,55.77
2022-08-11T07:16:11.153Z,55.63
2022-08-11T07:18:56.942Z,55.34
2022-08-11T07:22:03.181Z,55.43
2022-08-11T07:25:08.709Z,55.22
2022-08-11T07:28:05.170Z,53.87
2022-08-11T07:30:40.298Z,51.31
2022-08-11T07:33:14.298Z,50.12
2022-08-11T07:36:07.147Z,49.27
2022-08-11T07:38:53.100Z,48.51
2022-08-11T07:41:26.088Z,47.38
2022-08-11T07:44:09.521Z,46.94
2022-08-11T07:47:25.889Z,46.56
2022-08-11T07:50:16.511Z,45.58
2022-08-11T07:52:52.862Z,44.64
2022-08-11T07:55:48.981Z,44.04
2022-08-11T07:58:45.594Z,43.50
2022-08-11T08:01:50.066Z,42.49
2022-08-11T08:04:49.890Z,41.82
2022-08-11T08:08:05.623Z,41.38
2022-08-11T08:11:52.788Z,40.70
2022-08-11T08:15:17.265Z,39.79
2022-08-11T08:18:27.001Z,39.08
2022-08-11T08:22:38.928Z,38.22
2022-08-11T08:26:27.009Z,36.62
2022-08-11T08:30:19.305Z,35.75
2022-08-11T08:33:55.681Z,33.94
2022-08-11T08:37:53.067Z,33.58
2022-08-11T08:46:20.117Z,31.92
2022-08-11T08:50:16.353Z,30.97
2022-08-11T08:53:35.549Z,30.07
2022-08-11T08:57:10.396Z,29.52
2022-08-11T09:01:09.214Z,28.23
2022-08-11T09:05:09.367Z,27.52
2022-08-11T09:12:36.395Z,26.86
2022-08-11T09:16:07.809Z,26.36
2022-08-11T09:27:20.970Z,24.77
2022-08-11T09:30:51.838Z,23.18
2022-08-11T09:34:41.370Z,23.39
2022-08-11T09:37:56.348Z,23.99
2022-08-11T09:40:32.553Z,23.81
2022-08-11T09:43:31.304Z,23.52
2022-08-11T09:46:29.318Z,22.93
2022-08-11T09:49:40.810Z,22.82
2022-08-11T09:53:03.511Z,22.27
2022-08-11T09:55:55.237Z,22.47
2022-08-11T09:58:41.681Z,22.40
2022-08-11T10:01:27.771Z,22.42
2022-08-11T10:04:25.770Z,22.22
2022-08-11T10:07:11.025Z,21.60
2022-08-11T10:10:03.573Z,22.04
2022-08-11T10:12:36.012Z,22.29
2022-08-11T10:15:28.314Z,22.27
2022-08-11T10:18:32.804Z,21.71
2022-08-11T10:21:25.220Z,22.16
2022-08-11T10:24:17.791Z,22.13
2022-08-11T10:26:56.610Z,22.27
2022-08-11T10:29:52.202Z,21.96
2022-08-11T10:32:57.329Z,21.79
2022-08-11T10:35:34.170Z,21.74
2022-08-11T10:38:10.079Z,21.57
2022-08-11T10:40:42.900Z,21.54
2022-08-11T10:44:01.152Z,21.50
2022-08-11T10:46:31.375Z,21.37
2022-08-11T10:49:04.042Z,21.14
2022-08-11T10:51:53.771Z,21.14
2022-08-11T10:54:42.996Z,20.83
2022-08-11T10:57:33.256Z,20.84
2022-08-11T11:00:07.303Z,21.22
2022-08-11T11:02:38.695Z,21.33
2022-08-11T11:06:12.544Z,21.38
2022-08-11T11:09:00.023Z,21.41
2022-08-11T11:11:58.489Z,21.73
2022-08-11T11:14:59.019Z,21.41
2022-08-11T11:18:02.339Z,21.64
2022-08-11T11:20:47.323Z,21.43
2022-08-11T11:23:20.425Z,21.41
2022-08-11T11:26:17.170Z,21.43
2022-08-11T11:29:41.244Z,21.50
2022-08-11T11:32:28.142Z,21.90
2022-08-11T11:36:01.451Z,21.92
2022-08-11T11:38:32.185Z,22.33
2022-08-11T11:41:21.926Z,22.41
2022-08-11T11:43:57.136Z,22.40
2022-08-11T11:46:31.068Z,22.30
2022-08-11T11:49:16.819Z,22.11
2022-08-11T11:51:52.945Z,21.98
2022-08-11T11:54:24.943Z,21.74
2022-08-11T11:56:58.072Z,21.58
2022-08-11T11:59:49.160Z,21.75
2022-08-11T12:02:21.037Z,21.94
2022-08-11T12:04:51.698Z,21.79
2022-08-11T12:07:40.892Z,21.84
2022-08-11T12:10:11.084Z,22.11
2022-08-11T12:12:59.787Z,22.31
2022-08-11T12:16:04.494Z,22.16
2022-08-11T12:18:19.962Z,22.72
2022-08-11T12:20:49.825Z,22.46
2022-08-11T12:23:38.220Z,22.61
2022-08-11T12:26:27.644Z,22.53
2022-08-11T12:28:59.341Z,22.26
2022-08-11T12:31:33.648Z,22.60
2022-08-11T12:34:06.502Z,22.37
2022-08-11T12:36:46.993Z,22.38
2022-08-11T12:40:17.187Z,22.25
2022-08-11T12:42:55.268Z,21.82
2022-08-11T12:45:28.804Z,21.83
2022-08-11T12:48:59.879Z,21.76
2022-08-11T12:52:14.083Z,21.75
2022-08-11T12:56:07.367Z,21.88
2022-08-11T12:58:35.752Z,21.82
2022-08-11T13:01:24.005Z,21.51
2022-08-11T13:04:14.234Z,21.60
2022-08-11T13:06:44.001Z,21.61
2022-08-11T13:09:16.282Z,21.85
2022-08-11T13:12:06.209Z,22.00
2022-08-11T13:14:38.398Z,22.32
2022-08-11T13:17:44.076Z,22.10
2022-08-11T13:20:20.597Z,22.38
2022-08-11T13:22:53.978Z,22.17
2022-08-11T13:25:27.827Z,21.89
2022-08-11T13:28:00.443Z,22.35
2022-08-11T13:30:51.625Z,22.37
2022-08-11T13:33:23.104Z,22.19
2022-08-11T13:35:56.225Z,22.36
2022-08-11T13:38:26.065Z,22.14
2022-08-11T13:40:59.359Z,22.04
2022-08-11T13:43:31.345Z,22.05
2022-08-11T13:46:31.830Z,22.10
2022-08-11T13:49:04.395Z,22.10
2022-08-11T13:51:35.328Z,22.11
2022-08-11T13:54:30.686Z,22.28
2022-08-11T13:57:09.164Z,22.55
2022-08-11T13:59:52.503Z,22.33
2022-08-11T14:02:30.674Z,22.31
2022-08-11T14:05:16.464Z,22.32
2022-08-11T14:08:31.778Z,22.41
2022-08-11T14:12:22.938Z,22.37
2022-08-11T14:14:22.538Z,22.28
2022-08-11T14:16:57.264Z,22.35
2022-08-11T14:19:28.551Z,22.22
2022-08-11T14:22:08.867Z,21.93
2022-08-11T14:24:45.696Z,22.33
2022-08-11T14:28:30.497Z,22.50
2022-08-11T14:30:30.022Z,22.61
2022-08-11T14:32:59.795Z,22.78
2022-08-11T14:35:30.981Z,22.99
2022-08-11T14:38:04.478Z,23.09
2022-08-11T14:40:55.645Z,22.89
2022-08-11T14:44:14.154Z,22.88
2022-08-11T14:47:02.279Z,23.25
2022-08-11T14:49:36.881Z,23.05
2022-08-11T14:52:28.008Z,22.61
2022-08-11T14:55:15.471Z,22.82
2022-08-11T14:57:55.896Z,22.67
2022-08-11T15:00:36.213Z,22.90
2022-08-11T15:03:11.933Z,22.86
2022-08-11T15:05:57.733Z,22.93
2022-08-11T15:08:51.869Z,23.01
2022-08-11T15:11:45.337Z,23.19
2022-08-11T15:14:42.440Z,23.38
2022-08-11T15:17:14.743Z,23.75
2022-08-11T15:20:03.962Z,23.63
2022-08-11T15:22:53.116Z,23.77
2022-08-11T15:25:23.793Z,24.04
2022-08-11T15:28:15.136Z,24.24
2022-08-11T15:31:09.938Z,24.19
2022-08-11T15:33:59.562Z,24.36
2022-08-11T15:36:50.566Z,24.25
2022-08-11T15:40:04.662Z,24.26
2022-08-11T15:42:57.317Z,24.39
2022-08-11T15:45:46.953Z,24.50
2022-08-11T15:48:49.684Z,24.51
2022-08-11T15:51:30.266Z,24.85
2022-08-11T15:54:09.257Z,24.45
2022-08-11T15:56:43.578Z,24.68
2022-08-11T15:59:41.722Z,24.75
2022-08-11T16:02:34.380Z,24.84
2022-08-11T16:05:07.729Z,24.57
2022-08-11T16:07:41.203Z,24.78
2022-08-11T16:10:31.104Z,24.90
2022-08-11T16:13:07.602Z,25.08
2022-08-11T16:16:01.105Z,25.07
2022-08-11T16:18:41.604Z,25.25
2022-08-11T16:21:33.956Z,25.33
2022-08-11T16:24:08.590Z,25.60
2022-08-11T16:27:11.066Z,25.75
2022-08-11T16:29:34.415Z,25.93
2022-08-11T16:32:19.701Z,26.16
2022-08-11T16:35:19.868Z,26.30
2022-08-11T16:38:09.828Z,26.42
2022-08-11T16:40:41.660Z,26.63
2022-08-11T16:43:34.487Z,26.80
2022-08-11T16:46:25.535Z,26.97
2022-08-11T16:48:57.586Z,27.15
2022-08-11T16:51:29.465Z,27.07
2022-08-11T16:54:05.124Z,27.38
2022-08-11T16:56:58.145Z,27.49
2022-08-11T16:59:36.757Z,27.80
2022-08-11T17:02:11.019Z,27.79
2022-08-11T17:05:09.931Z,27.88
2022-08-11T17:08:02.380Z,28.02
2022-08-11T17:11:03.650Z,28.10
2022-08-11T17:13:53.777Z,28.41
2022-08-11T17:16:31.904Z,28.26
2022-08-11T17:20:42.264Z,28.55
2022-08-11T17:22:39.589Z,28.80
2022-08-11T17:25:13.380Z,28.85
2022-08-11T17:27:44.437Z,28.67
2022-08-11T17:30:15.154Z,28.84
2022-08-11T17:33:07.756Z,28.95
2022-08-11T17:35:41.934Z,29.12
2022-08-11T17:38:34.696Z,29.04
2022-08-11T17:41:44.229Z,29.34
2022-08-11T17:44:33.042Z,29.65
2022-08-11T17:47:25.464Z,29.65
2022-08-11T17:49:56.611Z,29.60
2022-08-11T17:53:06.192Z,29.99
2022-08-11T17:55:57.974Z,29.90
2022-08-11T17:58:46.371Z,29.93
2022-08-11T18:01:17.632Z,30.17
2022-08-11T18:03:56.318Z,30.30
2022-08-11T18:06:34.821Z,30.44
2022-08-11T18:09:27.325Z,30.60
2022-08-11T18:12:18.484Z,30.77
2022-08-11T18:15:09.773Z,30.85
2022-08-11T18:18:00.906Z,31.09
2022-08-11T18:20:48.853Z,31.16
2022-08-11T18:23:45.784Z,31.17
2022-08-11T18:26:39.946Z,31.22
2022-08-11T18:29:31.123Z,31.29
2022-08-11T18:32:49.069Z,31.58
2022-08-11T18:35:39.691Z,31.76
2022-08-11T18:38:34.754Z,31.88
2022-08-11T18:41:27.599Z,32.11
2022-08-11T18:44:22.622Z,32.25
2022-08-11T18:47:12.574Z,32.43
2022-08-11T18:50:05.611Z,32.57
2022-08-11T18:52:55.264Z,32.74
2022-08-11T18:55:43.964Z,32.91
2022-08-11T18:58:36.045Z,33.15
2022-08-11T19:01:27.837Z,33.29
2022-08-11T19:04:19.176Z,33.56
2022-08-11T19:07:15.496Z,33.68
2022-08-11T19:10:08.582Z,33.85
2022-08-11T19:13:00.757Z,34.03
2022-08-11T19:15:51.223Z,34.12
2022-08-11T19:18:42.029Z,34.18
2022-08-11T19:21:31.785Z,34.20
2022-08-11T19:24:22.885Z,34.35
2022-08-11T19:27:12.392Z,34.64
2022-08-11T19:30:04.959Z,34.75
2022-08-11T19:33:02.295Z,34.93
2022-08-11T19:35:50.640Z,35.16
2022-08-11T19:38:39.823Z,35.25
2022-08-11T19:41:56.937Z,35.30
2022-08-11T19:44:40.696Z,35.65
2022-08-11T19:47:30.686Z,35.70
2022-08-11T19:50:24.143Z,35.72
2022-08-11T19:53:17.310Z,35.99
2022-08-11T19:56:11.327Z,36.12
2022-08-11T19:58:59.628Z,36.18
2022-08-11T20:02:05.329Z,36.26
2022-08-11T20:04:54.996Z,36.53
2022-08-11T20:07:44.756Z,36.55
2022-08-11T20:10:36.186Z,36.63
2022-08-11T20:13:28.474Z,36.78
2022-08-11T20:16:18.560Z,36.86
2022-08-11T20:19:09.592Z,37.00
2022-08-11T20:22:01.805Z,37.07
2022-08-11T20:24:56.662Z,37.18
2022-08-11T20:27:45.047Z,37.33
2022-08-11T20:30:39.077Z,37.52
2022-08-11T20:33:28.791Z,37.63
2022-08-11T20:36:17.437Z,37.75
2022-08-11T20:39:08.623Z,38.04
2022-08-11T20:42:00.586Z,38.25
2022-08-11T20:44:51.249Z,38.36
2022-08-11T20:47:58.869Z,38.50
2022-08-11T20:50:50.691Z,38.80
2022-08-11T20:53:43.420Z,39.22
2022-08-11T20:56:32.407Z,39.62
2022-08-11T20:59:25.221Z,40.03
2022-08-11T21:02:15.616Z,40.23
2022-08-11T21:05:06.708Z,40.24
2022-08-11T21:07:59.107Z,40.38
2022-08-11T21:10:52.012Z,40.54
2022-08-11T21:13:43.187Z,40.61
2022-08-11T21:16:36.420Z,40.64
2022-08-11T21:20:00.718Z,40.91
2022-08-11T21:22:59.644Z,40.69
2022-08-11T21:26:02.523Z,40.81
2022-08-11T21:28:52.862Z,40.74
2022-08-11T21:31:41.386Z,40.87
2022-08-11T21:34:31.546Z,40.87
2022-08-11T21:37:20.838Z,40.90
2022-08-11T21:40:17.003Z,40.94
2022-08-11T21:43:07.725Z,41.12
2022-08-11T21:45:57.935Z,41.18
2022-08-11T21:48:48.041Z,41.38
2022-08-11T21:51:41.589Z,41.51
2022-08-11T21:54:38.177Z,41.65
2022-08-11T21:57:30.715Z,41.73
2022-08-11T22:00:21.529Z,41.92
2022-08-11T22:03:11.213Z,41.88
2022-08-11T22:06:01.096Z,42.05
2022-08-11T22:08:48.662Z,42.12
2022-08-11T22:11:37.787Z,42.09
2022-08-11T22:14:25.844Z,42.23
2022-08-11T22:17:16.410Z,42.45
2022-08-11T22:20:04.944Z,42.52
2022-08-11T22:22:54.084Z,42.73
2022-08-11T22:25:44.228Z,42.90
2022-08-11T22:28:42.148Z,43.08
2022-08-11T22:31:32.392Z,43.50
2022-08-11T22:34:21.415Z,43.62
2022-08-11T22:37:09.885Z,43.70
2022-08-11T22:40:18.481Z,43.90
2022-08-11T22:43:10.914Z,43.93
2022-08-11T22:46:00.597Z,44.00
2022-08-11T22:48:50.155Z,44.14
2022-08-11T22:51:40.892Z,44.35
2022-08-11T22:54:29.232Z,44.31
2022-08-11T22:57:20.009Z,44.80
2022-08-11T23:00:12.024Z,44.98
2022-08-11T23:03:03.416Z,45.25
2022-08-11T23:05:54.806Z,45.44
2022-08-11T23:08:43.749Z,45.67
2022-08-11T23:12:04.751Z,45.74
2022-08-11T23:14:44.653Z,46.06
2022-08-11T23:17:36.042Z,46.19
2022-08-11T23:20:41.523Z,46.25
2022-08-11T23:23:40.148Z,46.53
2022-08-11T23:26:30.031Z,46.63
2022-08-11T23:29:22.549Z,46.77
2022-08-11T23:32:15.192Z,46.69
2022-08-11T23:35:38.715Z,47.02
2022-08-11T23:38:16.092Z,47.25
2022-08-11T23:41:09.508Z,47.23
2022-08-11T23:43:58.537Z,47.23
2022-08-11T23:46:49.928Z,47.22
2022-08-11T23:49:39.821Z,47.13
2022-08-11T23:52:32.845Z,47.24
2022-08-11T23:55:21.896Z,47.50
2022-08-11T23:58:11.937Z,47.50
